Time;durP1;ratioP1;P1;durP2;ratioP2;P2;SDS_P1;SDS_P2;PMS_P1;PMS_P2;Temp;Humidity;BMP_temperature;BMP_pressure;BME280_temperature;BME280_humidity;BME280_pressure;Samples;Min_cycle;Max_cycle;Signal;HPM_P1;HPM_P2
2020/12/08 14:18:58;;;;;;;38.60;21.48;;;5.40;99.90;;;;;;5116183;27;20552;-68
2020/12/08 14:21:31;;;;;;;34.35;19.70;;;5.40;99.90;;;;;;5106111;28;20269;-67
2020/12/08 14:24:02;;;;;;;37.00;20.10;;;5.40;99.90;;;;;;5108222;28;20208;-67
2020/12/08 14:26:29;;;;;;;26.40;16.70;;;5.40;99.90;;;;;;5101103;28;20204;-66
2020/12/08 14:28:56;;;;;;;40.33;19.55;;;5.30;99.90;;;;;;5115883;28;20275;-68
2020/12/08 14:31:23;;;;;;;36.63;20.63;;;5.30;99.90;;;;;;5112487;28;20202;-69
2020/12/08 14:33:50;;;;;;;36.25;20.00;;;5.20;99.90;;;;;;5108252;28;20206;-68
2020/12/08 14:36:18;;;;;;;36.53;21.10;;;5.10;99.90;;;;;;5107287;28;20243;-68
2020/12/08 14:38:44;;;;;;;47.95;22.55;;;5.10;99.90;;;;;;5114732;28;20236;-68
2020/12/08 14:41:11;;;;;;;43.28;20.05;;;5.10;99.90;;;;;;5114250;28;20212;-67
2020/12/08 14:43:38;;;;;;;35.20;22.15;;;5.20;99.90;;;;;;5115437;28;20206;-67
2020/12/08 14:46:05;;;;;;;41.20;23.15;;;5.10;99.90;;;;;;5114815;28;20399;-68
2020/12/08 14:48:32;;;;;;;38.60;20.95;;;5.20;99.90;;;;;;5104348;28;20206;-67
2020/12/08 14:50:59;;;;;;;38.00;19.25;;;5.20;99.90;;;;;;5110176;28;20224;-68
2020/12/08 14:53:26;;;;;;;39.78;20.40;;;5.10;99.90;;;;;;5114634;28;20208;-70
2020/12/08 14:55:53;;;;;;;37.65;21.60;;;5.00;99.90;;;;;;5103324;28;20216;-68
2020/12/08 14:58:20;;;;;;;37.00;23.27;;;5.10;99.90;;;;;;5118062;28;20228;-68
2020/12/08 15:00:46;;;;;;;49.53;24.15;;;4.90;99.90;;;;;;5110909;28;20232;-67
2020/12/08 15:03:14;;;;;;;52.35;28.05;;;4.90;99.90;;;;;;5110129;28;20215;-67
2020/12/08 15:05:40;;;;;;;41.65;23.95;;;4.90;99.90;;;;;;5114477;28;20208;-68
2020/12/08 15:08:07;;;;;;;44.13;23.90;;;4.90;99.90;;;;;;5114520;28;20219;-69
2020/12/08 15:10:34;;;;;;;48.13;25.33;;;4.90;99.90;;;;;;5101384;28;20240;-69
2020/12/08 15:13:01;;;;;;;44.60;22.67;;;4.90;99.90;;;;;;5114560;28;20542;-67
2020/12/08 15:15:28;;;;;;;46.80;22.55;;;4.90;99.90;;;;;;5101660;28;20208;-68
2020/12/08 15:17:54;;;;;;;41.65;25.08;;;4.90;99.90;;;;;;5113402;28;20251;-68
2020/12/08 15:20:21;;;;;;;38.67;21.73;;;5.00;99.90;;;;;;5113927;28;20274;-68
2020/12/08 15:22:48;;;;;;;53.95;22.83;;;5.00;99.90;;;;;;5098870;28;20205;-66
2020/12/08 15:25:15;;;;;;;43.05;22.58;;;4.90;99.90;;;;;;5115386;28;20387;-67
2020/12/08 15:27:42;;;;;;;34.70;21.00;;;4.90;99.90;;;;;;5111532;28;20220;-67
2020/12/08 15:30:10;;;;;;;43.83;20.35;;;4.90;99.90;;;;;;5089240;28;20295;-68
2020/12/08 15:32:37;;;;;;;34.38;19.27;;;4.90;99.90;;;;;;5100609;28;20202;-69
2020/12/08 15:35:17;;;;;;;26.67;18.20;;;4.70;99.90;;;;;;5096177;28;20248;-68
2020/12/08 15:37:44;;;;;;;35.83;20.02;;;4.80;99.90;;;;;;5086888;28;20586;-69
2020/12/08 15:40:11;;;;;;;40.90;20.90;;;4.90;99.90;;;;;;5094378;28;20786;-67
2020/12/08 15:42:39;;;;;;;34.15;18.33;;;4.80;99.90;;;;;;5091442;28;20201;-68
2020/12/08 15:45:07;;;;;;;32.70;19.52;;;4.90;99.90;;;;;;5094942;28;20209;-67
2020/12/08 15:47:35;;;;;;;41.40;21.80;;;4.90;99.90;;;;;;5085281;28;20397;-66
2020/12/08 15:50:06;;;;;;;27.55;17.70;;;4.90;99.90;;;;;;5088585;28;20264;-68
2020/12/08 15:52:35;;;;;;;37.97;20.63;;;4.90;99.90;;;;;;5082772;28;20266;-67
2020/12/08 15:55:05;;;;;;;37.13;20.17;;;5.00;99.90;;;;;;5087750;28;20218;-67
2020/12/08 15:57:32;;;;;;;43.78;20.30;;;5.10;99.90;;;;;;5099406;28;20573;-67
2020/12/08 16:00:00;;;;;;;37.33;19.00;;;5.00;99.90;;;;;;5099356;28;20332;-67
2020/12/08 16:02:27;;;;;;;34.33;22.40;;;5.10;99.90;;;;;;5083657;28;20492;-69
2020/12/08 16:04:54;;;;;;;37.25;20.63;;;5.10;99.90;;;;;;5082935;28;20209;-68
2020/12/08 16:07:21;;;;;;;40.78;22.25;;;5.10;99.90;;;;;;5084296;28;20209;-67
2020/12/08 16:09:48;;;;;;;40.97;22.48;;;5.10;99.90;;;;;;5085716;28;20210;-68
2020/12/08 16:12:16;;;;;;;34.42;20.90;;;5.00;99.90;;;;;;5085029;28;20205;-69
2020/12/08 16:14:43;;;;;;;36.80;20.63;;;4.90;99.90;;;;;;5099299;28;20205;-67
2020/12/08 16:17:10;;;;;;;48.45;19.48;;;4.70;99.90;;;;;;5088709;28;20238;-67
2020/12/08 16:19:37;;;;;;;30.00;16.48;;;4.50;99.90;;;;;;5085728;28;20221;-68
2020/12/08 16:22:03;;;;;;;39.55;20.65;;;4.40;99.90;;;;;;5082309;28;20419;-67
2020/12/08 16:24:30;;;;;;;43.65;19.35;;;4.30;99.90;;;;;;5082512;28;20625;-68
2020/12/08 16:26:57;;;;;;;28.13;17.52;;;4.40;99.90;;;;;;5090338;28;20659;-67
2020/12/08 16:29:24;;;;;;;29.40;18.17;;;4.20;99.90;;;;;;5083437;28;20229;-68
2020/12/08 16:31:57;;;;;;;24.33;15.15;;;4.10;99.90;;;;;;5080632;28;20212;-68
2020/12/08 16:34:23;;;;;;;24.17;16.30;;;4.00;99.90;;;;;;5093424;28;20456;-68
2020/12/08 16:36:50;;;;;;;30.85;16.30;;;4.00;99.90;;;;;;5092902;28;20272;-69
2020/12/08 16:39:17;;;;;;;26.70;17.75;;;4.00;99.90;;;;;;5091470;28;20251;-68
2020/12/08 16:41:44;;;;;;;36.30;18.23;;;4.00;99.90;;;;;;5097697;28;20205;-68
2020/12/08 16:44:11;;;;;;;26.50;17.88;;;4.00;99.90;;;;;;5082219;28;20368;-70
2020/12/08 16:46:38;;;;;;;27.77;16.77;;;4.00;99.90;;;;;;5096357;28;20491;-67
2020/12/08 16:49:05;;;;;;;26.63;18.77;;;3.90;99.90;;;;;;5097576;28;20245;-67
2020/12/08 16:51:36;;;;;;;28.60;15.18;;;3.90;99.90;;;;;;5099221;28;20209;-68
2020/12/08 16:54:04;;;;;;;25.40;17.70;;;3.80;99.90;;;;;;5087252;28;20217;-67
2020/12/08 16:56:35;;;;;;;31.02;17.98;;;3.70;99.90;;;;;;5097471;28;20201;-69
2020/12/08 16:59:02;;;;;;;41.40;21.58;;;3.70;99.90;;;;;;5099581;28;20576;-67
2020/12/08 17:01:29;;;;;;;36.72;18.58;;;3.70;99.90;;;;;;5098818;28;21407;-67
2020/12/08 17:03:56;;;;;;;20.58;15.13;;;3.60;99.90;;;;;;5089821;28;20214;-68
2020/12/08 17:06:23;;;;;;;26.48;17.52;;;3.60;99.90;;;;;;5098086;28;20290;-67
2020/12/08 17:08:50;;;;;;;39.22;19.25;;;3.50;99.90;;;;;;5097116;28;20307;-67
2020/12/08 17:11:17;;;;;;;31.52;16.60;;;3.50;99.90;;;;;;5085496;28;20204;-68
2020/12/08 17:13:43;;;;;;;31.65;17.58;;;3.50;99.90;;;;;;5098934;28;20208;-67
2020/12/08 17:16:10;;;;;;;41.65;19.20;;;3.50;99.90;;;;;;5098746;28;20208;-68
2020/12/08 17:18:37;;;;;;;25.52;15.27;;;3.50;99.90;;;;;;5098387;28;20270;-68
2020/12/08 17:21:05;;;;;;;30.20;18.25;;;3.50;99.90;;;;;;5081294;28;20211;-68
2020/12/08 17:23:34;;;;;;;30.40;17.92;;;3.50;99.90;;;;;;5088892;28;20212;-67
2020/12/08 17:26:01;;;;;;;39.30;20.08;;;3.50;99.90;;;;;;5098894;28;20209;-69
2020/12/08 17:28:28;;;;;;;44.53;20.20;;;3.50;99.90;;;;;;5089924;28;20213;-68
2020/12/08 17:30:58;;;;;;;33.30;21.90;;;3.50;99.90;;;;;;5082004;28;20267;-67
2020/12/08 17:33:26;;;;;;;27.70;16.45;;;3.40;99.90;;;;;;5078883;28;20209;-68
2020/12/08 17:35:53;;;;;;;33.22;19.00;;;3.40;99.90;;;;;;5079770;28;20204;-68
2020/12/08 17:38:20;;;;;;;44.30;18.45;;;3.20;99.90;;;;;;5078324;28;20229;-68
2020/12/08 17:40:47;;;;;;;34.75;18.60;;;3.10;99.90;;;;;;5085825;28;20204;-68
2020/12/08 17:43:14;;;;;;;33.13;19.38;;;3.00;99.90;;;;;;5095975;28;20482;-66
2020/12/08 17:45:41;;;;;;;43.05;20.48;;;2.80;99.90;;;;;;5089822;28;20203;-70
2020/12/08 17:48:07;;;;;;;41.95;22.00;;;2.80;99.90;;;;;;5092238;28;20206;-66
2020/12/08 17:50:34;;;;;;;44.90;23.15;;;2.60;99.90;;;;;;5096058;28;20223;-67
2020/12/08 17:53:02;;;;;;;46.05;23.15;;;2.60;99.90;;;;;;5089788;28;20199;-67
2020/12/08 17:55:28;;;;;;;41.63;22.10;;;2.60;99.90;;;;;;5095138;28;20208;-69
2020/12/08 17:57:56;;;;;;;32.53;23.63;;;2.50;99.90;;;;;;5098544;28;20354;-67
2020/12/08 18:00:23;;;;;;;38.92;21.90;;;2.40;99.90;;;;;;5098461;28;20232;-66
2020/12/08 18:02:50;;;;;;;31.27;20.90;;;2.20;99.90;;;;;;5096786;28;20203;-67
2020/12/08 18:05:17;;;;;;;36.78;23.65;;;2.30;99.90;;;;;;5093245;28;20206;-69
2020/12/08 18:07:44;;;;;;;40.35;23.75;;;2.20;99.90;;;;;;5097215;28;20273;-67
2020/12/08 18:10:14;;;;;;;47.97;24.13;;;2.20;99.90;;;;;;5097656;28;20274;-67
2020/12/08 18:12:41;;;;;;;52.25;26.35;;;2.20;99.90;;;;;;5086340;28;20274;-67
2020/12/08 18:15:10;;;;;;;47.20;26.75;;;2.20;99.90;;;;;;5085736;28;20218;-68
2020/12/08 18:17:38;;;;;;;43.03;24.67;;;2.10;99.90;;;;;;5087186;28;20256;-68
2020/12/08 18:20:09;;;;;;;50.28;25.42;;;2.20;99.90;;;;;;5097770;28;20202;-67
2020/12/08 18:22:40;;;;;;;56.08;25.65;;;2.10;99.90;;;;;;5091641;28;20521;-69
2020/12/08 18:25:07;;;;;;;45.53;27.60;;;2.00;99.90;;;;;;5084022;28;20199;-68
2020/12/08 18:27:34;;;;;;;49.70;26.13;;;2.00;99.90;;;;;;5091494;28;20206;-68
2020/12/08 18:30:01;;;;;;;52.83;28.98;;;2.00;99.90;;;;;;5092316;28;20218;-68
2020/12/08 18:32:39;;;;;;;60.22;30.10;;;2.00;99.90;;;;;;5096634;28;20204;-68
2020/12/08 18:35:07;;;;;;;46.10;27.30;;;2.00;99.90;;;;;;5067280;28;20786;-68
2020/12/08 18:37:39;;;;;;;49.20;24.83;;;1.90;99.90;;;;;;5090846;28;20226;-68
2020/12/08 18:40:07;;;;;;;46.13;26.77;;;1.90;99.90;;;;;;5079033;28;20466;-69
2020/12/08 18:42:34;;;;;;;47.40;27.63;;;1.80;99.90;;;;;;5073861;28;20211;-68
2020/12/08 18:45:07;;;;;;;61.78;29.75;;;1.80;99.90;;;;;;5035901;28;20505;-69
2020/12/08 18:47:37;;;;;;;54.63;28.30;;;1.80;99.90;;;;;;5097046;28;20213;-70
2020/12/08 18:50:06;;;;;;;54.50;27.92;;;1.60;99.90;;;;;;5097784;28;20202;-67
2020/12/08 18:52:33;;;;;;;44.33;26.45;;;1.70;99.90;;;;;;5097501;28;20212;-69
2020/12/08 18:55:00;;;;;;;56.78;29.73;;;1.70;99.90;;;;;;5094741;28;20207;-69
2020/12/08 18:57:27;;;;;;;41.70;25.35;;;1.60;99.90;;;;;;5087018;28;20237;-68
2020/12/08 18:59:54;;;;;;;45.45;26.30;;;1.60;99.90;;;;;;5094824;28;20199;-68
2020/12/08 19:02:21;;;;;;;38.10;20.65;;;1.60;99.90;;;;;;5091035;28;20241;-68
2020/12/08 19:04:52;;;;;;;50.42;27.35;;;1.70;99.90;;;;;;5095088;28;20210;-68
2020/12/08 19:07:19;;;;;;;44.63;24.00;;;1.60;99.90;;;;;;5093900;28;20206;-66
2020/12/08 19:09:46;;;;;;;41.72;24.42;;;1.60;99.90;;;;;;5101930;28;20213;-68
2020/12/08 19:12:16;;;;;;;35.30;22.88;;;1.60;99.90;;;;;;5094387;28;20269;-69
2020/12/08 19:14:43;;;;;;;41.38;25.52;;;1.60;99.90;;;;;;5086958;28;20489;-67
2020/12/08 19:17:10;;;;;;;38.08;22.05;;;1.60;99.90;;;;;;5089165;28;20304;-71
2020/12/08 19:19:36;;;;;;;43.42;25.75;;;1.60;99.90;;;;;;5101759;28;20226;-70
2020/12/08 19:22:03;;;;;;;45.05;26.88;;;1.50;99.90;;;;;;5096754;28;20431;-68
2020/12/08 19:24:30;;;;;;;44.55;26.50;;;1.50;99.90;;;;;;5096337;28;20271;-69
2020/12/08 19:26:57;;;;;;;47.33;29.38;;;1.60;99.90;;;;;;5088529;28;20385;-69
2020/12/08 19:29:24;;;;;;;46.28;28.60;;;1.50;99.90;;;;;;5105752;28;20237;-69
2020/12/08 19:31:55;;;;;;;52.33;29.15;;;1.40;99.90;;;;;;5100652;28;20214;-68
2020/12/08 19:34:23;;;;;;;55.80;33.17;;;1.50;99.90;;;;;;5098784;28;20210;-67
2020/12/08 19:36:50;;;;;;;68.22;32.30;;;1.40;99.90;;;;;;5080856;28;20417;-69
2020/12/08 19:39:17;;;;;;;44.35;24.88;;;1.30;99.90;;;;;;5080449;28;20288;-68
2020/12/08 19:41:46;;;;;;;43.88;26.98;;;1.40;99.90;;;;;;5099725;28;20516;-68
2020/12/08 19:44:15;;;;;;;45.05;27.35;;;1.30;99.90;;;;;;5100679;28;20206;-68
2020/12/08 19:46:43;;;;;;;50.38;27.52;;;1.30;99.90;;;;;;5100449;28;20519;-68
2020/12/08 19:49:10;;;;;;;58.35;33.70;;;1.30;99.90;;;;;;5100227;28;20214;-69
2020/12/08 19:51:40;;;;;;;59.05;32.13;;;1.20;99.90;;;;;;5098272;28;20580;-68
2020/12/08 19:54:07;;;;;;;51.95;27.98;;;1.00;99.90;;;;;;5094122;28;20214;-67
2020/12/08 19:56:39;;;;;;;52.50;28.10;;;1.00;99.90;;;;;;5088047;28;20203;-67
2020/12/08 19:59:05;;;;;;;56.40;28.38;;;1.10;99.90;;;;;;5090352;28;20240;-67
2020/12/08 20:01:32;;;;;;;52.83;27.63;;;1.10;99.90;;;;;;5088137;28;20213;-66
2020/12/08 20:03:59;;;;;;;56.80;28.60;;;1.00;99.90;;;;;;5093624;28;20225;-67
2020/12/08 20:06:26;;;;;;;49.70;27.20;;;1.00;99.90;;;;;;5100416;28;20415;-66
2020/12/08 20:08:53;;;;;;;51.35;26.55;;;1.00;99.90;;;;;;5098750;28;20237;-67
2020/12/08 20:11:21;;;;;;;51.53;29.33;;;1.10;99.90;;;;;;5100286;28;20206;-66
2020/12/08 20:13:48;;;;;;;60.05;32.70;;;1.10;99.90;;;;;;5100673;28;20434;-67
2020/12/08 20:16:15;;;;;;;51.08;29.52;;;1.10;99.90;;;;;;5097136;28;20230;-70
2020/12/08 20:18:43;;;;;;;59.15;31.27;;;1.20;99.90;;;;;;5100316;28;20232;-66
2020/12/08 20:21:12;;;;;;;53.72;32.03;;;1.00;99.90;;;;;;5098196;28;20244;-66
2020/12/08 20:23:39;;;;;;;57.38;36.60;;;1.00;99.90;;;;;;5098324;28;20278;-67
2020/12/08 20:26:06;;;;;;;54.47;29.60;;;1.00;99.90;;;;;;5090012;28;20210;-67
2020/12/08 20:28:33;;;;;;;53.90;26.90;;;0.90;99.90;;;;;;5096160;28;20520;-66
2020/12/08 20:31:02;;;;;;;57.85;34.40;;;0.90;99.90;;;;;;5099302;28;20222;-67
2020/12/08 20:33:29;;;;;;;68.60;33.78;;;1.00;99.90;;;;;;5099403;28;20202;-66
2020/12/08 20:35:56;;;;;;;68.10;30.35;;;0.90;99.90;;;;;;5096377;28;20206;-68
2020/12/08 20:38:22;;;;;;;58.38;32.95;;;1.20;99.90;;;;;;5090808;28;20251;-67
2020/12/08 20:40:49;;;;;;;61.40;36.20;;;1.70;99.90;;;;;;5093350;28;20216;-67
2020/12/08 20:43:16;;;;;;;61.20;35.05;;;0.90;99.90;;;;;;5092755;28;20234;-67
2020/12/08 20:45:44;;;;;;;76.65;38.65;;;0.80;99.90;;;;;;5096409;28;20234;-67
2020/12/08 20:48:11;;;;;;;69.70;36.70;;;0.70;99.90;;;;;;5097027;28;20442;-68
2020/12/08 20:50:40;;;;;;;60.78;30.90;;;0.70;99.90;;;;;;5091796;28;20274;-65
2020/12/08 20:53:10;;;;;;;62.42;34.95;;;0.70;99.90;;;;;;5097482;28;20230;-65
2020/12/08 20:55:39;;;;;;;61.13;32.83;;;0.70;99.90;;;;;;5090930;28;20202;-66
2020/12/08 20:58:10;;;;;;;64.93;34.58;;;0.80;99.90;;;;;;5093771;28;20237;-67
2020/12/08 21:00:37;;;;;;;59.90;33.83;;;0.70;99.90;;;;;;5086588;28;20512;-67
2020/12/08 21:03:06;;;;;;;70.60;38.10;;;0.70;99.90;;;;;;5091512;28;20203;-67
2020/12/08 21:05:33;;;;;;;64.32;37.20;;;0.60;99.90;;;;;;5089639;28;20206;-66
2020/12/08 21:08:00;;;;;;;58.90;37.53;;;0.60;99.90;;;;;;5093489;28;20206;-66
2020/12/08 21:10:27;;;;;;;67.28;37.70;;;0.50;99.90;;;;;;5096760;28;20225;-68
2020/12/08 21:12:59;;;;;;;63.05;33.22;;;0.30;99.90;;;;;;5095383;28;20209;-66
2020/12/08 21:15:26;;;;;;;53.10;32.25;;;0.40;99.90;;;;;;5089360;28;20397;-66
2020/12/08 21:17:52;;;;;;;55.45;33.78;;;0.60;99.90;;;;;;5090558;28;20560;-67
2020/12/08 21:20:20;;;;;;;67.60;36.67;;;0.10;99.90;;;;;;5094630;28;20384;-67
2020/12/08 21:22:48;;;;;;;58.40;33.38;;;0.10;99.90;;;;;;5094007;28;20212;-67
2020/12/08 21:25:15;;;;;;;65.20;37.03;;;0.10;99.90;;;;;;5090448;28;20252;-65
2020/12/08 21:27:41;;;;;;;73.45;39.15;;;0.10;99.90;;;;;;5095826;28;20413;-66
2020/12/08 21:30:11;;;;;;;58.92;33.17;;;0.20;99.90;;;;;;5096566;28;20230;-65
2020/12/08 21:32:45;;;;;;;56.25;35.17;;;0.20;99.90;;;;;;5093719;28;20240;-66
2020/12/08 21:35:14;;;;;;;67.88;36.63;;;0.70;99.90;;;;;;5094491;28;20210;-64
2020/12/08 21:37:41;;;;;;;56.45;32.08;;;0.10;99.90;;;;;;5092941;28;20238;-66
2020/12/08 21:40:10;;;;;;;56.35;33.85;;;0.10;99.90;;;;;;5092245;28;20202;-65
2020/12/08 21:42:38;;;;;;;54.55;34.20;;;0.00;99.90;;;;;;5092585;28;20300;-65
2020/12/08 21:45:06;;;;;;;61.13;30.75;;;-0.10;99.90;;;;;;5087049;28;20202;-66
2020/12/08 21:47:33;;;;;;;69.13;34.55;;;0.00;99.90;;;;;;5091657;28;20731;-65
2020/12/08 21:50:03;;;;;;;85.93;37.90;;;0.10;99.90;;;;;;5094664;28;20209;-65
2020/12/08 21:52:35;;;;;;;79.50;37.83;;;0.00;99.90;;;;;;5094509;28;20207;-67
2020/12/08 21:55:04;;;;;;;70.97;36.85;;;-0.10;99.90;;;;;;5087665;28;20256;-65
2020/12/08 21:57:30;;;;;;;72.13;37.30;;;0.10;99.90;;;;;;5092605;28;20206;-66
2020/12/08 21:59:57;;;;;;;71.45;35.50;;;0.00;99.90;;;;;;5099009;28;20210;-66
2020/12/08 22:02:32;;;;;;;62.03;34.75;;;0.10;99.90;;;;;;5099449;28;20263;-66
2020/12/08 22:05:00;;;;;;;63.78;33.47;;;0.50;99.90;;;;;;5094267;28;20218;-65
2020/12/08 22:07:30;;;;;;;71.03;33.92;;;-0.10;99.90;;;;;;5097036;28;20277;-66
2020/12/08 22:09:57;;;;;;;62.45;33.97;;;0.00;99.90;;;;;;5098815;28;20217;-66
2020/12/08 22:12:23;;;;;;;55.60;31.98;;;-0.10;99.90;;;;;;5100186;28;20247;-67
2020/12/08 22:14:50;;;;;;;70.03;35.83;;;-0.10;99.90;;;;;;5096562;28;20495;-66
2020/12/08 22:17:19;;;;;;;73.85;36.20;;;-0.10;99.90;;;;;;5088283;28;20246;-65
2020/12/08 22:19:45;;;;;;;59.95;34.00;;;-0.20;99.90;;;;;;5091774;28;20209;-66
2020/12/08 22:22:12;;;;;;;63.92;34.22;;;-0.20;99.90;;;;;;5088144;28;20211;-66
2020/12/08 22:24:39;;;;;;;71.93;37.85;;;-0.20;99.90;;;;;;5093689;28;20259;-66
2020/12/08 22:27:05;;;;;;;64.43;40.50;;;-0.20;99.90;;;;;;5098122;28;20210;-67
2020/12/08 22:29:32;;;;;;;80.20;41.25;;;0.30;99.90;;;;;;5098952;28;20225;-65
2020/12/08 22:31:59;;;;;;;76.00;37.45;;;-0.10;99.90;;;;;;5085024;28;20251;-66
2020/12/08 22:34:26;;;;;;;65.18;38.65;;;0.80;99.90;;;;;;5097091;28;20400;-65
2020/12/08 22:36:53;;;;;;;84.47;37.88;;;-0.10;99.90;;;;;;5085179;28;20206;-66
2020/12/08 22:39:21;;;;;;;75.53;40.30;;;0.30;99.90;;;;;;5098645;28;20285;-65
2020/12/08 22:41:47;;;;;;;76.40;40.38;;;-0.10;99.90;;;;;;5102287;28;20208;-66
2020/12/08 22:44:14;;;;;;;69.35;40.15;;;-0.10;99.90;;;;;;5101683;28;20210;-65
2020/12/08 22:46:41;;;;;;;61.25;38.10;;;-0.20;99.90;;;;;;5095933;28;20489;-66
2020/12/08 22:49:07;;;;;;;72.43;39.30;;;0.30;99.90;;;;;;5098279;28;20220;-64
2020/12/08 22:51:34;;;;;;;72.07;37.05;;;-0.10;99.90;;;;;;5098951;28;20206;-65
2020/12/08 22:54:01;;;;;;;72.88;37.75;;;-0.10;99.90;;;;;;5090647;28;20300;-65
2020/12/08 22:56:27;;;;;;;68.95;42.42;;;0.30;99.90;;;;;;5096213;28;20269;-65
2020/12/08 22:58:54;;;;;;;79.13;40.85;;;-0.20;99.90;;;;;;5101467;28;20308;-67
2020/12/08 23:01:25;;;;;;;76.70;44.17;;;-0.20;99.90;;;;;;5095879;28;20202;-65
2020/12/08 23:03:51;;;;;;;73.88;41.05;;;-0.20;99.90;;;;;;5100275;28;20202;-65
2020/12/08 23:06:18;;;;;;;81.15;43.17;;;0.00;99.90;;;;;;5101325;28;20570;-65
2020/12/08 23:08:46;;;;;;;81.22;43.92;;;-0.20;99.90;;;;;;5098562;28;20304;-65
2020/12/08 23:11:14;;;;;;;89.05;46.97;;;-0.30;99.90;;;;;;5063076;28;20206;-64
2020/12/08 23:13:41;;;;;;;76.43;42.85;;;-0.20;99.90;;;;;;5073891;28;20210;-64
2020/12/08 23:16:07;;;;;;;90.20;44.92;;;0.20;99.90;;;;;;5094511;28;20203;-65
2020/12/08 23:18:35;;;;;;;111.10;47.50;;;0.10;99.90;;;;;;5092930;28;20249;-65
2020/12/08 23:21:02;;;;;;;66.70;37.15;;;-0.20;99.90;;;;;;5096951;28;21194;-65
2020/12/08 23:23:28;;;;;;;85.57;45.83;;;-0.30;99.90;;;;;;5094473;28;20227;-66
2020/12/08 23:25:55;;;;;;;88.80;41.05;;;-0.30;99.90;;;;;;5097091;28;20207;-66
2020/12/08 23:28:21;;;;;;;67.72;38.80;;;-0.40;99.90;;;;;;5096652;28;20234;-65
2020/12/08 23:30:48;;;;;;;80.28;39.22;;;-0.40;99.90;;;;;;5099900;28;20222;-65
2020/12/08 23:33:15;;;;;;;85.25;43.17;;;0.60;99.90;;;;;;5089277;28;20203;-65
2020/12/08 23:35:41;;;;;;;79.47;40.15;;;-0.40;99.90;;;;;;5098400;28;20203;-66
2020/12/08 23:38:25;;;;;;;80.80;42.13;;;0.40;99.90;;;;;;5100308;28;20281;-65
2020/12/08 23:40:52;;;;;;;68.18;39.95;;;-0.50;99.90;;;;;;5100028;28;20365;-65
2020/12/08 23:43:19;;;;;;;68.03;36.47;;;-0.50;99.90;;;;;;5099920;28;20202;-67
2020/12/08 23:45:46;;;;;;;65.05;36.08;;;-0.50;99.90;;;;;;5098507;28;20202;-67
2020/12/08 23:48:15;;;;;;;73.13;35.67;;;0.10;99.90;;;;;;5100452;28;20601;-66
2020/12/08 23:50:42;;;;;;;64.68;36.10;;;-0.60;99.90;;;;;;5097062;28;20203;-66
2020/12/08 23:53:08;;;;;;;75.13;37.83;;;-0.60;99.90;;;;;;5096642;28;20500;-66
2020/12/08 23:55:35;;;;;;;80.03;38.22;;;0.10;99.90;;;;;;5096958;28;20212;-66
2020/12/08 23:58:02;;;;;;;72.97;37.92;;;-0.50;99.90;;;;;;5093973;28;20228;-65
